Time;durP1;ratioP1;P1;durP2;ratioP2;P2;SDS_P1;SDS_P2;PMS_P1;PMS_P2;Temp;Humidity;BMP_temperature;BMP_pressure;BME280_temperature;BME280_humidity;BME280_pressure;Samples;Min_cycle;Max_cycle;Signal;HPM_P1;HPM_P2
2023/04/25 00:01:29;;;;;;;;;;;12.80;99.90;;;;;;6082615;23;19905;-62
2023/04/25 00:03:54;;;;;;;;;;;12.80;99.90;;;;;;6083110;23;20276;-62
2023/04/25 00:06:20;;;;;;;;;;;12.80;99.90;;;;;;6082505;23;20275;-62
2023/04/25 00:08:45;;;;;;;;;;;12.80;99.90;;;;;;6081778;23;19916;-62
2023/04/25 00:11:11;;;;;;;;;;;12.80;99.90;;;;;;6084789;23;19909;-62
2023/04/25 00:13:36;;;;;;;;;;;12.90;99.90;;;;;;6083547;23;20008;-62
2023/04/25 00:16:02;;;;;;;;;;;12.90;99.90;;;;;;6080830;23;19917;-62
2023/04/25 00:18:29;;;;;;;;;;;13.00;99.90;;;;;;6079856;23;19909;-61
2023/04/25 00:20:55;;;;;;;;;;;13.10;99.90;;;;;;6083231;23;19909;-62
2023/04/25 00:23:20;;;;;;;;;;;13.10;99.90;;;;;;6085259;23;19917;-62
2023/04/25 00:25:49;;;;;;;;;;;13.20;99.90;;;;;;6082820;23;20415;-62
2023/04/25 00:28:15;;;;;;;;;;;13.10;99.90;;;;;;6079114;23;19909;-62
2023/04/25 00:30:41;;;;;;;;;;;13.20;99.90;;;;;;6083627;23;19936;-62
2023/04/25 00:33:07;;;;;;;;;;;13.20;99.90;;;;;;6083132;23;19917;-62
2023/04/25 00:35:32;;;;;;;;;;;13.10;99.90;;;;;;6085850;23;20485;-62
2023/04/25 00:37:58;;;;;;;;;;;13.00;99.90;;;;;;6081750;23;19960;-62
2023/04/25 00:40:24;;;;;;;;;;;13.10;99.90;;;;;;6085281;23;19909;-62
2023/04/25 00:42:51;;;;;;;;;;;13.10;99.90;;;;;;6085667;23;19917;-62
2023/04/25 00:45:17;;;;;;;;;;;13.20;99.90;;;;;;6083427;23;20674;-62
2023/04/25 00:47:43;;;;;;;;;;;13.20;99.90;;;;;;6085700;23;19920;-62
2023/04/25 00:50:08;;;;;;;;;;;13.20;99.90;;;;;;6083370;23;19909;-63
2023/04/25 00:52:34;;;;;;;;;;;13.10;99.90;;;;;;6085752;23;19936;-63
2023/04/25 00:55:00;;;;;;;;;;;12.90;99.90;;;;;;6081729;23;19968;-63
2023/04/25 00:57:26;;;;;;;;;;;12.90;99.90;;;;;;6083912;23;19909;-62
2023/04/25 00:59:52;;;;;;;;;;;12.90;99.90;;;;;;6081494;23;20383;-63
2023/04/25 01:02:18;;;;;;;;;;;13.00;99.90;;;;;;6081188;23;20422;-62
2023/04/25 01:04:44;;;;;;;;;;;13.00;99.90;;;;;;6081280;23;19917;-62
2023/04/25 01:07:10;;;;;;;;;;;13.10;99.90;;;;;;6079961;23;19960;-63
2023/04/25 01:09:36;;;;;;;;;;;13.10;99.90;;;;;;6083567;23;19988;-63
2023/04/25 01:12:02;;;;;;;;;;;13.30;99.90;;;;;;6083579;23;19943;-62
2023/04/25 01:14:28;;;;;;;;;;;13.30;99.90;;;;;;6080996;23;20326;-63
2023/04/25 01:16:54;;;;;;;;;;;13.30;99.90;;;;;;6082752;23;19909;-63
2023/04/25 01:19:19;;;;;;;;;;;13.30;99.90;;;;;;6081550;23;20328;-65
2023/04/25 01:21:45;;;;;;;;;;;13.20;99.90;;;;;;6083363;23;19917;-65
2023/04/25 01:24:11;;;;;;;;;;;13.20;99.90;;;;;;6080344;23;19928;-64
2023/04/25 01:26:36;;;;;;;;;;;13.30;99.90;;;;;;6085306;23;19905;-65
2023/04/25 01:29:04;;;;;;;;;;;13.20;99.90;;;;;;6081729;23;19977;-65
2023/04/25 01:31:29;;;;;;;;;;;13.20;99.90;;;;;;6083797;23;19909;-64
2023/04/25 01:33:55;;;;;;;;;;;13.20;99.90;;;;;;6080044;23;19925;-65
2023/04/25 01:36:21;;;;;;;;;;;13.20;99.90;;;;;;6080564;23;19939;-65
2023/04/25 01:38:47;;;;;;;;;;;13.20;99.90;;;;;;6081239;23;19989;-65
2023/04/25 01:41:13;;;;;;;;;;;13.30;99.90;;;;;;6082460;23;20008;-64
2023/04/25 01:43:39;;;;;;;;;;;13.30;99.90;;;;;;6081416;23;19976;-65
2023/04/25 01:46:04;;;;;;;;;;;13.30;99.90;;;;;;6081952;23;20343;-65
2023/04/25 01:48:30;;;;;;;;;;;13.30;99.90;;;;;;6081150;23;20105;-65
2023/04/25 01:50:55;;;;;;;;;;;13.30;99.90;;;;;;6083511;23;19906;-64
2023/04/25 01:53:22;;;;;;;;;;;13.30;99.90;;;;;;6082040;23;19954;-63
2023/04/25 01:55:48;;;;;;;;;;;13.40;99.90;;;;;;6077105;23;19964;-64
2023/04/25 01:58:13;;;;;;;;;;;13.50;99.90;;;;;;6083884;23;19909;-64
2023/04/25 02:00:40;;;;;;;;;;;13.50;99.90;;;;;;6082383;23;20350;-64
2023/04/25 02:03:06;;;;;;;;;;;13.60;99.90;;;;;;6084095;23;19984;-64
2023/04/25 02:05:36;;;;;;;;;;;13.60;99.90;;;;;;6083075;23;20618;-64
2023/04/25 02:08:01;;;;;;;;;;;13.60;99.90;;;;;;6083136;23;20366;-63
2023/04/25 02:10:27;;;;;;;;;;;13.60;99.90;;;;;;6085595;23;19941;-64
2023/04/25 02:12:53;;;;;;;;;;;13.60;99.90;;;;;;6082374;23;19910;-63
2023/04/25 02:15:18;;;;;;;;;;;13.60;99.90;;;;;;6084298;23;19916;-64
2023/04/25 02:17:45;;;;;;;;;;;13.40;99.90;;;;;;6085069;23;19909;-63
2023/04/25 02:20:10;;;;;;;;;;;13.30;99.90;;;;;;6087323;23;20012;-63
2023/04/25 02:22:36;;;;;;;;;;;13.20;99.90;;;;;;6085957;23;19984;-63
2023/04/25 02:25:04;;;;;;;;;;;13.10;99.90;;;;;;6086208;23;20366;-63
2023/04/25 02:27:30;;;;;;;;;;;12.80;99.90;;;;;;6086335;23;19909;-64
2023/04/25 02:29:55;;;;;;;;;;;12.50;99.90;;;;;;6086350;23;19993;-63
2023/04/25 02:32:21;;;;;;;;;;;12.40;99.90;;;;;;6084876;23;20734;-63
2023/04/25 02:34:47;;;;;;;;;;;12.40;99.90;;;;;;6087537;23;20287;-63
2023/04/25 02:37:13;;;;;;;;;;;12.20;99.90;;;;;;6087639;23;19939;-64
2023/04/25 02:39:38;;;;;;;;;;;12.20;99.90;;;;;;6085954;23;19909;-63
2023/04/25 02:42:04;;;;;;;;;;;12.10;99.90;;;;;;6086111;23;19921;-63
2023/04/25 02:44:30;;;;;;;;;;;12.00;99.90;;;;;;6085077;23;20279;-63
2023/04/25 02:46:55;;;;;;;;;;;12.00;99.90;;;;;;6083685;23;19987;-64
2023/04/25 02:49:21;;;;;;;;;;;12.00;99.90;;;;;;6084080;23;19921;-63
2023/04/25 02:51:46;;;;;;;;;;;11.90;99.90;;;;;;6085941;23;19905;-63
2023/04/25 02:54:11;;;;;;;;;;;11.90;99.90;;;;;;6086314;23;20359;-63
2023/04/25 02:56:39;;;;;;;;;;;11.80;99.90;;;;;;6086406;23;19909;-63
2023/04/25 02:59:04;;;;;;;;;;;11.80;99.90;;;;;;6085643;23;20523;-63
2023/04/25 03:01:30;;;;;;;;;;;11.80;99.90;;;;;;6085874;23;19912;-63
2023/04/25 03:03:55;;;;;;;;;;;11.70;99.90;;;;;;6083971;23;19905;-63
2023/04/25 03:06:21;;;;;;;;;;;11.70;99.90;;;;;;6084741;23;20229;-63
2023/04/25 03:08:46;;;;;;;;;;;11.60;99.90;;;;;;6085595;23;20334;-63
2023/04/25 03:11:12;;;;;;;;;;;11.60;99.90;;;;;;6085242;23;19909;-63
2023/04/25 03:13:37;;;;;;;;;;;11.50;99.90;;;;;;6086361;23;19910;-63
2023/04/25 03:16:03;;;;;;;;;;;11.50;99.90;;;;;;6086434;23;20742;-62
2023/04/25 03:18:28;;;;;;;;;;;11.50;99.90;;;;;;6082458;23;20661;-62
2023/04/25 03:20:54;;;;;;;;;;;11.50;99.90;;;;;;6085575;23;19909;-63
2023/04/25 03:23:20;;;;;;;;;;;11.50;99.90;;;;;;6084368;23;19916;-63
2023/04/25 03:25:45;;;;;;;;;;;11.50;99.90;;;;;;6086608;23;19956;-63
2023/04/25 03:28:11;;;;;;;;;;;11.40;99.90;;;;;;6084563;23;20320;-63
2023/04/25 03:30:36;;;;;;;;;;;11.40;99.90;;;;;;6085526;23;19909;-63
2023/04/25 03:33:02;;;;;;;;;;;11.40;99.90;;;;;;6085155;23;19984;-63
2023/04/25 03:35:27;;;;;;;;;;;11.30;99.90;;;;;;6085619;23;19909;-65
2023/04/25 03:37:53;;;;;;;;;;;11.20;99.90;;;;;;6082641;23;19920;-65
2023/04/25 03:40:18;;;;;;;;;;;11.30;99.90;;;;;;6085061;23;20242;-64
2023/04/25 03:42:44;;;;;;;;;;;11.20;99.90;;;;;;6085763;23;19929;-65
2023/04/25 03:45:09;;;;;;;;;;;11.20;99.90;;;;;;6086393;23;19956;-65
2023/04/25 03:47:35;;;;;;;;;;;11.30;99.90;;;;;;6084519;23;19909;-65
2023/04/25 03:50:02;;;;;;;;;;;11.20;99.90;;;;;;6082904;23;19954;-64
2023/04/25 03:52:27;;;;;;;;;;;11.20;99.90;;;;;;6085557;23;19909;-62
2023/04/25 03:54:53;;;;;;;;;;;11.20;99.90;;;;;;6085341;23;19905;-62
2023/04/25 03:57:18;;;;;;;;;;;11.10;99.90;;;;;;6083541;23;19952;-62
2023/04/25 03:59:44;;;;;;;;;;;11.10;99.90;;;;;;6085478;23;19916;-62
2023/04/25 04:02:10;;;;;;;;;;;11.00;99.90;;;;;;6079136;23;19916;-62
2023/04/25 04:04:36;;;;;;;;;;;11.00;99.90;;;;;;6081729;23;19971;-61
2023/04/25 04:07:01;;;;;;;;;;;10.90;99.90;;;;;;6084321;23;19921;-62
2023/04/25 04:09:27;;;;;;;;;;;10.90;99.90;;;;;;6082903;23;20590;-61
2023/04/25 04:11:53;;;;;;;;;;;10.90;99.90;;;;;;6086336;23;20057;-62
2023/04/25 04:14:18;;;;;;;;;;;10.90;99.90;;;;;;6082453;23;20440;-62
2023/04/25 04:16:44;;;;;;;;;;;10.90;99.90;;;;;;6083877;23;20669;-62
2023/04/25 04:19:10;;;;;;;;;;;10.90;99.90;;;;;;6082770;23;20328;-62
2023/04/25 04:21:36;;;;;;;;;;;10.90;99.90;;;;;;6083896;23;19944;-61
2023/04/25 04:24:01;;;;;;;;;;;10.90;99.90;;;;;;6085251;23;19921;-62
2023/04/25 04:26:27;;;;;;;;;;;10.90;99.90;;;;;;6082017;23;20079;-61
2023/04/25 04:28:54;;;;;;;;;;;10.80;99.90;;;;;;6085658;23;19909;-62
2023/04/25 04:31:20;;;;;;;;;;;10.80;99.90;;;;;;6083321;23;19929;-62
2023/04/25 04:33:46;;;;;;;;;;;10.80;99.90;;;;;;6081568;23;19910;-62
2023/04/25 04:36:11;;;;;;;;;;;10.90;99.90;;;;;;6084022;23;19968;-62
2023/04/25 04:38:37;;;;;;;;;;;11.00;99.90;;;;;;6084189;23;20367;-62
2023/04/25 04:41:03;;;;;;;;;;;11.00;99.90;;;;;;6083408;23;19909;-62
2023/04/25 04:43:29;;;;;;;;;;;11.10;99.90;;;;;;6085377;23;19961;-62
2023/04/25 04:45:56;;;;;;;;;;;11.00;99.90;;;;;;6084562;23;19917;-63
2023/04/25 04:48:22;;;;;;;;;;;11.10;99.90;;;;;;6081409;23;19916;-63
2023/04/25 04:50:48;;;;;;;;;;;11.20;99.90;;;;;;6082255;23;20326;-63
2023/04/25 04:53:13;;;;;;;;;;;11.20;99.90;;;;;;6085618;23;19912;-62
2023/04/25 04:55:40;;;;;;;;;;;11.20;99.90;;;;;;6084004;23;20009;-63
2023/04/25 04:58:07;;;;;;;;;;;11.30;99.90;;;;;;6084760;23;19909;-63
2023/04/25 05:00:32;;;;;;;;;;;11.30;99.90;;;;;;6083951;23;19913;-62
2023/04/25 05:02:58;;;;;;;;;;;11.30;99.90;;;;;;6083366;23;19960;-62
2023/04/25 05:05:24;;;;;;;;;;;11.40;99.90;;;;;;6083322;23;20040;-63
2023/04/25 05:07:50;;;;;;;;;;;11.60;99.90;;;;;;6083411;23;19925;-63
2023/04/25 05:10:16;;;;;;;;;;;11.60;99.90;;;;;;6079950;23;19914;-62
2023/04/25 05:12:42;;;;;;;;;;;11.60;99.90;;;;;;6086446;23;20251;-62
2023/04/25 05:15:07;;;;;;;;;;;11.50;99.90;;;;;;6080163;23;20170;-62
2023/04/25 05:17:33;;;;;;;;;;;11.50;99.90;;;;;;6080883;23;19913;-62
2023/04/25 05:19:58;;;;;;;;;;;11.50;99.90;;;;;;6083336;23;19940;-62
2023/04/25 05:22:24;;;;;;;;;;;11.50;99.90;;;;;;6082698;23;19992;-63
2023/04/25 05:24:51;;;;;;;;;;;11.40;99.90;;;;;;6080839;23;20366;-63
2023/04/25 05:27:17;;;;;;;;;;;11.40;99.90;;;;;;6083630;23;19910;-63
2023/04/25 05:29:43;;;;;;;;;;;11.30;99.90;;;;;;6078928;23;19909;-63
2023/04/25 05:32:09;;;;;;;;;;;11.10;99.90;;;;;;6082772;23;20603;-63
2023/04/25 05:34:34;;;;;;;;;;;11.00;99.90;;;;;;6079333;23;20383;-63
2023/04/25 05:37:00;;;;;;;;;;;10.90;99.90;;;;;;6080386;23;19910;-63
2023/04/25 05:39:26;;;;;;;;;;;10.80;99.90;;;;;;6080918;23;19940;-63
2023/04/25 05:41:52;;;;;;;;;;;10.80;99.90;;;;;;6084061;23;20375;-63
2023/04/25 05:44:17;;;;;;;;;;;10.90;99.90;;;;;;6086170;23;19921;-62
2023/04/25 05:46:43;;;;;;;;;;;10.80;99.90;;;;;;6083300;23;19909;-63
2023/04/25 05:49:08;;;;;;;;;;;10.70;99.90;;;;;;6085574;23;19909;-63
2023/04/25 05:51:34;;;;;;;;;;;10.70;99.90;;;;;;6086488;23;19910;-62
2023/04/25 05:53:59;;;;;;;;;;;10.70;99.90;;;;;;6087673;23;20246;-63
2023/04/25 05:56:25;;;;;;;;;;;10.70;99.90;;;;;;6086164;23;20367;-63
2023/04/25 05:58:51;;;;;;;;;;;10.80;99.90;;;;;;6085969;23;19913;-63
2023/04/25 06:01:16;;;;;;;;;;;10.80;99.90;;;;;;6085495;23;20143;-62
2023/04/25 06:03:42;;;;;;;;;;;10.70;99.90;;;;;;6085525;23;20358;-62
2023/04/25 06:06:08;;;;;;;;;;;10.60;99.90;;;;;;6080530;23;19918;-62
2023/04/25 06:08:34;;;;;;;;;;;10.50;99.90;;;;;;6088700;23;19913;-62
2023/04/25 06:11:00;;;;;;;;;;;10.50;99.90;;;;;;6086692;23;19909;-62
2023/04/25 06:13:25;;;;;;;;;;;10.60;99.90;;;;;;6087303;23;20129;-62
2023/04/25 06:15:51;;;;;;;;;;;10.50;99.90;;;;;;6086859;23;19972;-62
2023/04/25 06:18:16;;;;;;;;;;;10.50;99.90;;;;;;6086841;23;19937;-62
2023/04/25 06:20:42;;;;;;;;;;;10.50;99.90;;;;;;6086431;23;19920;-62
2023/04/25 06:23:07;;;;;;;;;;;10.50;99.90;;;;;;6086887;23;19913;-62
2023/04/25 06:25:33;;;;;;;;;;;10.60;99.90;;;;;;6086857;23;19928;-63
2023/04/25 06:27:58;;;;;;;;;;;10.60;99.90;;;;;;6087579;23;19916;-62
2023/04/25 06:30:25;;;;;;;;;;;10.60;99.90;;;;;;6088092;23;20414;-62
2023/04/25 06:32:51;;;;;;;;;;;10.60;99.90;;;;;;6084546;23;19937;-62
2023/04/25 06:35:17;;;;;;;;;;;10.60;99.90;;;;;;6084071;23;20291;-63
2023/04/25 06:37:42;;;;;;;;;;;10.60;99.90;;;;;;6086912;23;19957;-63
2023/04/25 06:40:08;;;;;;;;;;;10.60;99.90;;;;;;6087244;23;19909;-62
2023/04/25 06:42:33;;;;;;;;;;;10.70;99.90;;;;;;6084501;23;19969;-63
2023/04/25 06:44:59;;;;;;;;;;;10.70;99.90;;;;;;6086743;23;20243;-63
2023/04/25 06:47:24;;;;;;;;;;;10.70;99.90;;;;;;6085101;23;19996;-63
2023/04/25 06:49:50;;;;;;;;;;;10.70;99.90;;;;;;6084857;23;20445;-63
2023/04/25 06:52:17;;;;;;;;;;;10.70;99.90;;;;;;6085496;23;20332;-63
2023/04/25 06:54:43;;;;;;;;;;;10.70;99.90;;;;;;6085637;23;19909;-63
2023/04/25 06:57:08;;;;;;;;;;;10.80;99.90;;;;;;6085379;23;20492;-63
2023/04/25 06:59:34;;;;;;;;;;;10.70;99.90;;;;;;6084268;23;19909;-63
2023/04/25 07:02:00;;;;;;;;;;;10.80;99.90;;;;;;6084971;23;19905;-63
2023/04/25 07:04:25;;;;;;;;;;;10.70;99.90;;;;;;6083643;23;19917;-63
2023/04/25 07:06:51;;;;;;;;;;;10.80;99.90;;;;;;6085492;23;20000;-63
2023/04/25 07:09:16;;;;;;;;;;;10.80;99.90;;;;;;6084286;23;19905;-63
2023/04/25 07:11:42;;;;;;;;;;;10.90;99.90;;;;;;6083765;23;20019;-63
2023/04/25 07:14:07;;;;;;;;;;;11.00;99.90;;;;;;6085090;23;20342;-63
2023/04/25 07:16:33;;;;;;;;;;;11.00;99.90;;;;;;6085393;23;19911;-64
2023/04/25 07:18:59;;;;;;;;;;;11.20;99.90;;;;;;6084692;23;19941;-64
2023/04/25 07:21:25;;;;;;;;;;;11.20;99.90;;;;;;6085948;23;19996;-63
2023/04/25 07:23:50;;;;;;;;;;;11.20;99.90;;;;;;6086756;23;19937;-63
2023/04/25 07:26:16;;;;;;;;;;;11.40;99.90;;;;;;6083294;23;20378;-63
2023/04/25 07:28:42;;;;;;;;;;;11.40;99.90;;;;;;6084954;23;19909;-64
2023/04/25 07:31:07;;;;;;;;;;;11.30;99.90;;;;;;6082510;23;20387;-64
2023/04/25 07:33:33;;;;;;;;;;;11.40;99.90;;;;;;6085543;23;19909;-63
2023/04/25 07:35:58;;;;;;;;;;;11.50;99.90;;;;;;6084684;23;20786;-63
2023/04/25 07:38:24;;;;;;;;;;;11.50;99.90;;;;;;6085456;23;19910;-63
2023/04/25 07:40:50;;;;;;;;;;;11.60;99.90;;;;;;6084097;23;19984;-64
2023/04/25 07:43:16;;;;;;;;;;;11.70;99.90;;;;;;6083991;23;20319;-64
2023/04/25 07:45:45;;;;;;;;;;;11.70;99.90;;;;;;6083733;23;19972;-64
2023/04/25 07:48:11;;;;;;;;;;;11.70;99.90;;;;;;6086714;23;20008;-63
2023/04/25 07:50:36;;;;;;;;;;;11.80;99.90;;;;;;6081634;23;20676;-64
2023/04/25 07:53:02;;;;;;;;;;;11.80;99.90;;;;;;6080348;23;19910;-63
2023/04/25 07:55:28;;;;;;;;;;;11.90;99.90;;;;;;6075163;23;19914;-64
2023/04/25 07:57:53;;;;;;;;;;;11.90;99.90;;;;;;6084030;23;20386;-63
2023/04/25 08:00:19;;;;;;;;;;;12.00;99.90;;;;;;6083568;23;19913;-64
2023/04/25 08:02:44;;;;;;;;;;;12.10;99.90;;;;;;6082996;23;19909;-63
2023/04/25 08:05:11;;;;;;;;;;;12.10;99.90;;;;;;6084956;23;19917;-63
2023/04/25 08:07:38;;;;;;;;;;;12.10;99.90;;;;;;6083753;23;20021;-63
2023/04/25 08:10:05;;;;;;;;;;;12.00;99.90;;;;;;6084730;23;19916;-63
2023/04/25 08:12:30;;;;;;;;;;;12.00;99.90;;;;;;6082044;23;19909;-63
2023/04/25 08:14:56;;;;;;;;;;;12.00;99.90;;;;;;6078642;23;20323;-63
2023/04/25 08:17:21;;;;;;;;;;;12.10;99.90;;;;;;6078684;23;19913;-62
2023/04/25 08:19:47;;;;;;;;;;;12.20;99.90;;;;;;6083496;23;19906;-63
2023/04/25 08:22:12;;;;;;;;;;;12.20;99.90;;;;;;6081510;23;20008;-63
2023/04/25 08:24:38;;;;;;;;;;;12.20;99.90;;;;;;6080790;23;20475;-63
2023/04/25 08:27:03;;;;;;;;;;;12.20;99.90;;;;;;6084964;23;20279;-64
2023/04/25 08:29:29;;;;;;;;;;;12.20;99.90;;;;;;6080885;23;19925;-65
2023/04/25 08:31:54;;;;;;;;;;;12.30;99.90;;;;;;6083023;23;20654;-64
2023/04/25 08:34:20;;;;;;;;;;;12.40;99.90;;;;;;6079562;23;19910;-63
2023/04/25 08:36:46;;;;;;;;;;;12.40;99.90;;;;;;6080598;23;19984;-65
2023/04/25 08:39:11;;;;;;;;;;;12.40;99.90;;;;;;6078393;23;19919;-65
2023/04/25 08:41:37;;;;;;;;;;;12.50;99.90;;;;;;6076372;23;19909;-66
2023/04/25 08:44:03;;;;;;;;;;;12.50;99.90;;;;;;6078507;23;19941;-65
2023/04/25 08:46:29;;;;;;;;;;;12.70;99.90;;;;;;6082273;23;20310;-63
2023/04/25 08:48:56;;;;;;;;;;;12.90;99.90;;;;;;6079783;23;19909;-62
2023/04/25 08:51:24;;;;;;;;;;;12.80;99.90;;;;;;6082836;23;19909;-62
2023/04/25 08:53:50;;;;;;;;;;;12.70;99.90;;;;;;6080725;23;20000;-63
2023/04/25 08:56:25;;;;;;;;;;;12.50;99.90;;;;;;6080597;23;19916;-62
2023/04/25 08:58:51;;;;;;;;;;;12.50;99.90;;;;;;6080366;23;19983;-61
2023/04/25 09:01:18;;;;;;;;;;;12.60;99.90;;;;;;6077971;23;19913;-62
2023/04/25 09:03:44;;;;;;;;;;;12.70;99.90;;;;;;6080731;23;19935;-62
2023/04/25 09:06:13;;;;;;;;;;;12.70;99.90;;;;;;6082767;23;19920;-61
2023/04/25 09:08:40;;;;;;;;;;;12.70;99.90;;;;;;6078354;23;19956;-61
2023/04/25 09:11:07;;;;;;;;;;;12.80;99.90;;;;;;6077850;23;20331;-62
2023/04/25 09:13:32;;;;;;;;;;;12.80;99.90;;;;;;6077114;23;19909;-62
2023/04/25 09:15:58;;;;;;;;;;;12.90;99.90;;;;;;6072668;23;19909;-62
2023/04/25 09:18:26;;;;;;;;;;;12.90;99.90;;;;;;6081011;23;19909;-62
2023/04/25 09:20:56;;;;;;;;;;;13.00;99.90;;;;;;6072276;23;19909;-61
2023/04/25 09:23:22;;;;;;;;;;;13.00;99.90;;;;;;6076557;23;19913;-62
2023/04/25 09:25:51;;;;;;;;;;;12.80;99.90;;;;;;6079377;23;19993;-61
2023/04/25 09:28:22;;;;;;;;;;;12.80;99.90;;;;;;6083006;23;19913;-62
2023/04/25 09:30:48;;;;;;;;;;;12.90;99.90;;;;;;6081605;23;20640;-61
2023/04/25 09:33:13;;;;;;;;;;;12.90;99.90;;;;;;6078298;23;20004;-61
2023/04/25 09:35:40;;;;;;;;;;;12.90;99.90;;;;;;6081656;23;19912;-61
2023/04/25 09:38:13;;;;;;;;;;;12.90;99.90;;;;;;6080859;23;19909;-62
2023/04/25 09:40:40;;;;;;;;;;;12.90;99.90;;;;;;6078012;23;19909;-61
2023/04/25 09:43:09;;;;;;;;;;;12.90;99.90;;;;;;6084029;23;19922;-63
2023/04/25 09:45:45;;;;;;;;;;;12.80;99.90;;;;;;6082301;23;20202;-62
2023/04/25 09:48:12;;;;;;;;;;;12.90;99.90;;;;;;6084153;23;20474;-62
2023/04/25 09:50:37;;;;;;;;;;;13.10;99.90;;;;;;6084338;23;19915;-61
2023/04/25 09:53:05;;;;;;;;;;;13.30;99.90;;;;;;6081282;23;19933;-62
2023/04/25 09:55:32;;;;;;;;;;;13.30;99.90;;;;;;6079087;23;19917;-62
2023/04/25 09:57:59;;;;;;;;;;;13.20;99.90;;;;;;6072301;23;19909;-62
2023/04/25 10:00:25;;;;;;;;;;;13.20;99.90;;;;;;6083629;23;20327;-62
2023/04/25 10:02:51;;;;;;;;;;;13.10;99.90;;;;;;6081802;23;19916;-62
2023/04/25 10:05:17;;;;;;;;;;;12.90;99.90;;;;;;6079381;23;20544;-62
2023/04/25 10:07:43;;;;;;;;;;;12.80;99.90;;;;;;6081081;23;19933;-62
2023/04/25 10:10:10;;;;;;;;;;;12.80;99.90;;;;;;6078702;23;20651;-62
2023/04/25 10:12:35;;;;;;;;;;;12.90;99.90;;;;;;6078794;23;19909;-62
2023/04/25 10:15:02;;;;;;;;;;;12.90;99.90;;;;;;6081114;23;19909;-63
2023/04/25 10:17:28;;;;;;;;;;;12.90;99.90;;;;;;6083525;23;20303;-64
2023/04/25 10:19:54;;;;;;;;;;;12.90;99.90;;;;;;6082255;23;19909;-63
2023/04/25 10:22:32;;;;;;;;;;;13.00;99.90;;;;;;6081595;23;19906;-64
2023/04/25 10:24:58;;;;;;;;;;;13.10;99.90;;;;;;6077184;23;19944;-63
2023/04/25 10:27:23;;;;;;;;;;;13.10;99.90;;;;;;6084792;23;20255;-63
2023/04/25 10:30:06;;;;;;;;;;;13.00;99.90;;;;;;6081586;23;19909;-64
2023/04/25 10:32:35;;;;;;;;;;;13.00;99.90;;;;;;6083234;23;19913;-64
2023/04/25 10:35:39;;;;;;;;;;;13.00;99.90;;;;;;6084391;23;20247;-63
2023/04/25 10:38:06;;;;;;;;;;;13.10;99.90;;;;;;5961870;24;19963;-63
2023/04/25 10:40:32;;;;;;;;;;;13.00;99.90;;;;;;5966774;24;19910;-63
2023/04/25 10:43:17;;;;;;;;;;;12.90;99.90;;;;;;6023832;23;19917;-63
2023/04/25 10:45:52;;;;;;;;;;;12.80;99.90;;;;;;6078692;23;20000;-63
2023/04/25 10:48:30;;;;;;;;;;;12.80;99.90;;;;;;6077338;23;19964;-63
2023/04/25 10:51:12;;;;;;;;;;;12.90;99.90;;;;;;6082435;23;19924;-63
2023/04/25 10:53:37;;;;;;;;;;;13.00;99.90;;;;;;6082699;23;19910;-63
2023/04/25 10:56:09;;;;;;;;;;;13.00;99.90;;;;;;6082659;23;19909;-63
2023/04/25 10:58:35;;;;;;;;;;;13.00;99.90;;;;;;6084267;23;19936;-64
2023/04/25 11:01:01;;;;;;;;;;;13.10;99.90;;;;;;6086396;23;20513;-63
2023/04/25 11:03:26;;;;;;;;;;;13.20;99.90;;;;;;6086493;23;19909;-63
2023/04/25 11:05:52;;;;;;;;;;;13.30;99.90;;;;;;6078919;23;19928;-64
2023/04/25 11:08:25;;;;;;;;;;;13.40;99.90;;;;;;6077116;23;20315;-63
2023/04/25 11:10:51;;;;;;;;;;;13.50;99.90;;;;;;6082982;23;20013;-63
2023/04/25 11:13:18;;;;;;;;;;;13.60;99.90;;;;;;6086445;23;20336;-62
2023/04/25 11:15:43;;;;;;;;;;;13.50;99.90;;;;;;6083665;23;20118;-62
2023/04/25 11:18:09;;;;;;;;;;;13.50;99.90;;;;;;6078903;23;20406;-62
2023/04/25 11:20:35;;;;;;;;;;;13.70;99.90;;;;;;6082707;23;20111;-63
2023/04/25 11:23:00;;;;;;;;;;;13.60;99.90;;;;;;6085471;23;19937;-62
2023/04/25 11:25:26;;;;;;;;;;;13.60;99.90;;;;;;6085629;23;19924;-62
2023/04/25 11:27:56;;;;;;;;;;;13.60;99.90;;;;;;6076147;23;20012;-62
2023/04/25 11:30:23;;;;;;;;;;;13.60;99.90;;;;;;6070404;23;19910;-62
2023/04/25 11:32:48;;;;;;;;;;;13.70;99.90;;;;;;6080443;23;19910;-61
2023/04/25 11:35:15;;;;;;;;;;;13.80;99.90;;;;;;6074168;23;19988;-62
2023/04/25 11:37:40;;;;;;;;;;;14.10;99.90;;;;;;6085942;23;19909;-62
2023/04/25 11:40:08;;;;;;;;;;;14.10;99.90;;;;;;6086434;23;19917;-62
2023/04/25 11:42:34;;;;;;;;;;;14.00;99.90;;;;;;6086339;23;19921;-62
2023/04/25 11:44:59;;;;;;;;;;;14.00;99.90;;;;;;6087560;23;19924;-62
2023/04/25 11:47:29;;;;;;;;;;;14.00;99.90;;;;;;6082170;23;19996;-62
2023/04/25 11:49:55;;;;;;;;;;;14.00;99.90;;;;;;6082834;23;20436;-62
2023/04/25 11:52:20;;;;;;;;;;;14.00;99.90;;;;;;6088102;23;20068;-62
2023/04/25 11:54:46;;;;;;;;;;;14.00;99.90;;;;;;6085064;23;20021;-62
2023/04/25 11:57:12;;;;;;;;;;;14.00;99.90;;;;;;6085127;23;19909;-62
2023/04/25 11:59:37;;;;;;;;;;;14.00;99.90;;;;;;6081334;23;19916;-62
2023/04/25 12:02:03;;;;;;;;;;;13.90;99.90;;;;;;6079698;23;19915;-62
2023/04/25 12:04:30;;;;;;;;;;;13.80;99.90;;;;;;6085556;23;20407;-62
2023/04/25 12:06:55;;;;;;;;;;;13.80;99.90;;;;;;6086649;23;19920;-62
2023/04/25 12:09:27;;;;;;;;;;;13.80;99.90;;;;;;6085058;23;19909;-62
2023/04/25 12:11:53;;;;;;;;;;;13.80;99.90;;;;;;6085473;23;20240;-63
2023/04/25 12:14:23;;;;;;;;;;;13.90;99.90;;;;;;6085964;23;19909;-62
2023/04/25 12:16:49;;;;;;;;;;;14.10;99.90;;;;;;6084782;23;19993;-62
2023/04/25 12:19:16;;;;;;;;;;;14.10;99.90;;;;;;6080562;23;20021;-62
2023/04/25 12:21:43;;;;;;;;;;;14.10;99.90;;;;;;6084446;23;19914;-63
2023/04/25 12:24:15;;;;;;;;;;;14.30;99.90;;;;;;6085008;23;19909;-62
2023/04/25 12:26:47;;;;;;;;;;;14.30;99.90;;;;;;6086382;23;19906;-62
2023/04/25 12:29:23;;;;;;;;;;;14.30;99.90;;;;;;6084812;23;19916;-62
2023/04/25 12:31:51;;;;;;;;;;;14.20;99.90;;;;;;6082290;23;19905;-63
2023/04/25 12:34:16;;;;;;;;;;;14.10;99.90;;;;;;6085677;23;20428;-62
2023/04/25 12:36:43;;;;;;;;;;;14.10;99.90;;;;;;6084908;23;20338;-62
2023/04/25 12:39:08;;;;;;;;;;;14.20;99.90;;;;;;6083755;23;19968;-62
2023/04/25 12:41:34;;;;;;;;;;;14.30;99.90;;;;;;6079565;23;19909;-62
2023/04/25 12:43:59;;;;;;;;;;;14.40;99.90;;;;;;6085382;23;19941;-62
2023/04/25 12:46:25;;;;;;;;;;;14.30;99.90;;;;;;6084735;23;19936;-62
2023/04/25 12:48:50;;;;;;;;;;;14.30;99.90;;;;;;6079507;23;19909;-62
2023/04/25 12:51:16;;;;;;;;;;;14.40;99.90;;;;;;6082223;23;19957;-62
2023/04/25 12:53:41;;;;;;;;;;;14.50;99.90;;;;;;6082949;23;19913;-62
2023/04/25 12:56:08;;;;;;;;;;;14.70;99.90;;;;;;6082220;23;19909;-62
2023/04/25 12:58:33;;;;;;;;;;;14.70;99.90;;;;;;6087368;23;19910;-62
2023/04/25 13:00:59;;;;;;;;;;;14.80;99.90;;;;;;6080111;23;20380;-62
2023/04/25 13:03:25;;;;;;;;;;;14.90;99.90;;;;;;6085770;23;19909;-61
2023/04/25 13:05:52;;;;;;;;;;;15.00;99.90;;;;;;6081523;23;19917;-62
2023/04/25 13:08:18;;;;;;;;;;;15.10;99.90;;;;;;6084426;23;19905;-62
2023/04/25 13:10:43;;;;;;;;;;;15.30;99.90;;;;;;6083895;23;19916;-62
2023/04/25 13:13:09;;;;;;;;;;;15.40;99.90;;;;;;6079628;23;20280;-62
2023/04/25 13:15:35;;;;;;;;;;;15.50;99.90;;;;;;6081080;23;19917;-62
2023/04/25 13:18:00;;;;;;;;;;;15.60;99.90;;;;;;6080455;23;19909;-61
2023/04/25 13:20:26;;;;;;;;;;;15.70;99.90;;;;;;6082239;23;19909;-62
2023/04/25 13:22:51;;;;;;;;;;;15.90;99.90;;;;;;6085086;23;19914;-62
2023/04/25 13:25:17;;;;;;;;;;;15.90;99.90;;;;;;6083241;23;19917;-62
2023/04/25 13:27:44;;;;;;;;;;;15.90;99.90;;;;;;6083461;23;20024;-62
2023/04/25 13:30:09;;;;;;;;;;;15.70;99.90;;;;;;6083980;23;19905;-62
2023/04/25 13:32:37;;;;;;;;;;;15.60;99.90;;;;;;6081332;23;19921;-62
2023/04/25 13:35:04;;;;;;;;;;;15.50;99.90;;;;;;6085511;23;19912;-62
2023/04/25 13:37:32;;;;;;;;;;;15.60;99.90;;;;;;6080479;23;19928;-62
2023/04/25 13:39:59;;;;;;;;;;;15.80;99.90;;;;;;6082717;23;19909;-63
2023/04/25 13:42:24;;;;;;;;;;;16.10;99.90;;;;;;6081629;23;20199;-62
2023/04/25 13:44:50;;;;;;;;;;;16.20;99.90;;;;;;6085207;23;19924;-62
2023/04/25 13:47:15;;;;;;;;;;;16.20;99.90;;;;;;6083701;23;19920;-62
2023/04/25 13:49:41;;;;;;;;;;;16.00;99.90;;;;;;6079170;23;19944;-62
2023/04/25 13:52:07;;;;;;;;;;;16.00;99.90;;;;;;6083336;23;19919;-62
2023/04/25 13:54:33;;;;;;;;;;;16.00;99.90;;;;;;6081763;23;19940;-62
2023/04/25 13:56:59;;;;;;;;;;;16.10;99.90;;;;;;6083678;23;19905;-62
2023/04/25 13:59:25;;;;;;;;;;;16.10;99.90;;;;;;6078605;23;19910;-62
2023/04/25 14:01:51;;;;;;;;;;;16.10;99.90;;;;;;6085043;23;20067;-62
2023/04/25 14:04:16;;;;;;;;;;;16.20;99.90;;;;;;6072098;23;20328;-62
2023/04/25 14:06:42;;;;;;;;;;;16.20;99.90;;;;;;6081200;23;19909;-62
2023/04/25 14:09:09;;;;;;;;;;;16.20;99.90;;;;;;6081283;23;19941;-63
2023/04/25 14:11:38;;;;;;;;;;;16.10;99.90;;;;;;6081846;23;20582;-63